createdAt,value
2023-05-12T00:00:25.242Z,11.95
2023-05-12T00:02:52.934Z,11.98
2023-05-12T00:05:20.540Z,12.02
2023-05-12T00:07:48.078Z,12.10
2023-05-12T00:10:17.433Z,12.13
2023-05-12T00:12:45.248Z,12.19
2023-05-12T00:15:12.858Z,12.19
2023-05-12T00:17:40.558Z,12.15
2023-05-12T00:20:09.590Z,12.12
2023-05-12T00:22:37.265Z,12.11
2023-05-12T00:25:05.216Z,12.12
2023-05-12T00:27:34.107Z,12.06
2023-05-12T00:30:01.995Z,12.01
2023-05-12T00:32:29.579Z,11.94
2023-05-12T00:34:57.405Z,11.93
2023-05-12T00:37:24.989Z,11.97
2023-05-12T00:39:52.703Z,12.01
2023-05-12T00:42:20.390Z,12.05
2023-05-12T00:44:50.004Z,12.04
2023-05-12T00:47:17.920Z,11.99
2023-05-12T00:49:45.604Z,11.98
2023-05-12T00:52:13.216Z,11.99
2023-05-12T00:54:43.312Z,12.03
2023-05-12T00:57:11.354Z,12.05
2023-05-12T00:59:38.914Z,12.09
2023-05-12T01:02:08.789Z,12.13
2023-05-12T01:04:37.347Z,12.19
2023-05-12T01:07:09.937Z,12.22
2023-05-12T01:09:37.458Z,12.26
2023-05-12T01:12:05.731Z,12.27
2023-05-12T01:14:34.155Z,12.28
2023-05-12T01:17:08.696Z,12.30
2023-05-12T01:19:42.776Z,12.29
2023-05-12T01:22:11.072Z,12.27
2023-05-12T01:24:46.734Z,12.27
2023-05-12T01:27:17.348Z,12.31
2023-05-12T01:29:47.542Z,12.33
2023-05-12T01:32:16.066Z,12.35
2023-05-12T01:34:44.339Z,12.32
2023-05-12T01:37:12.648Z,12.24
2023-05-12T01:39:40.252Z,12.18
2023-05-12T01:42:07.899Z,12.11
2023-05-12T01:44:36.871Z,12.06
2023-05-12T01:47:04.549Z,12.02
2023-05-12T01:49:32.114Z,11.99
2023-05-12T01:51:59.655Z,12.01
2023-05-12T01:54:27.493Z,12.04
2023-05-12T01:56:55.059Z,12.09
2023-05-12T01:59:22.662Z,12.13
2023-05-12T02:01:51.724Z,12.20
2023-05-12T02:04:19.302Z,12.23
2023-05-12T02:06:46.884Z,12.20
2023-05-12T02:09:14.500Z,12.16
2023-05-12T02:11:42.108Z,12.18
2023-05-12T02:14:09.689Z,12.20
2023-05-12T02:16:37.289Z,12.24
2023-05-12T02:19:06.329Z,12.30
2023-05-12T02:21:34.063Z,12.28
2023-05-12T02:24:01.714Z,12.24
2023-05-12T02:26:29.421Z,12.17
2023-05-12T02:28:56.917Z,12.13
2023-05-12T02:31:24.545Z,12.14
2023-05-12T02:33:52.573Z,12.12
2023-05-12T02:36:21.482Z,12.07
2023-05-12T02:38:49.056Z,12.04
2023-05-12T02:41:16.613Z,12.03
2023-05-12T02:43:44.210Z,12.03
2023-05-12T02:46:11.847Z,12.06
2023-05-12T02:48:39.386Z,12.07
2023-05-12T02:51:06.917Z,12.00
2023-05-12T02:53:35.790Z,11.92
2023-05-12T02:56:03.416Z,11.87
2023-05-12T02:58:30.972Z,11.87
2023-05-12T03:01:07.046Z,11.85
2023-05-12T03:03:37.488Z,11.86
2023-05-12T03:06:06.087Z,11.92
2023-05-12T03:08:33.988Z,11.97
2023-05-12T03:11:03.141Z,12.01
2023-05-12T03:13:30.671Z,12.03
2023-05-12T03:16:01.186Z,12.09
2023-05-12T03:18:29.238Z,12.14
2023-05-12T03:20:56.940Z,12.19
2023-05-12T03:23:24.616Z,12.21
2023-05-12T03:25:52.282Z,12.23
2023-05-12T03:28:22.943Z,12.27
2023-05-12T03:30:50.538Z,12.29
2023-05-12T03:33:18.079Z,12.30
2023-05-12T03:35:45.700Z,12.28
2023-05-12T03:38:13.421Z,12.29
2023-05-12T03:40:41.177Z,12.31
2023-05-12T03:43:08.691Z,12.32
2023-05-12T03:45:37.613Z,12.32
2023-05-12T03:48:05.699Z,12.32
2023-05-12T03:50:33.229Z,12.34
2023-05-12T03:53:00.770Z,12.35
2023-05-12T03:55:28.306Z,12.35
2023-05-12T03:57:55.836Z,12.30
2023-05-12T04:00:26.186Z,12.28
2023-05-12T04:02:55.198Z,12.28
2023-05-12T04:05:23.079Z,12.31
2023-05-12T04:07:50.606Z,12.33
2023-05-12T04:10:18.567Z,12.33
2023-05-12T04:12:46.264Z,12.27
2023-05-12T04:15:14.832Z,12.15
2023-05-12T04:17:42.753Z,12.11
2023-05-12T04:20:12.418Z,12.10
2023-05-12T04:22:40.454Z,12.11
2023-05-12T04:25:08.680Z,12.15
2023-05-12T04:27:36.218Z,12.21
2023-05-12T04:30:03.837Z,12.28
2023-05-12T04:32:31.528Z,12.31
2023-05-12T04:34:59.237Z,12.33
2023-05-12T04:37:28.204Z,12.37
2023-05-12T04:39:55.848Z,12.40
2023-05-12T04:42:23.442Z,12.42
2023-05-12T04:44:51.031Z,12.41
2023-05-12T04:47:18.638Z,12.40
2023-05-12T04:49:46.194Z,12.37
2023-05-12T04:52:13.895Z,12.31
2023-05-12T04:54:42.770Z,12.23
2023-05-12T04:57:10.359Z,12.17
2023-05-12T04:59:39.257Z,12.15
2023-05-12T05:02:08.097Z,12.15
2023-05-12T05:04:35.743Z,12.13
2023-05-12T05:07:03.298Z,12.11
2023-05-12T05:09:30.951Z,12.09
2023-05-12T05:11:59.856Z,12.10
2023-05-12T05:14:27.539Z,12.14
2023-05-12T05:16:55.436Z,12.20
2023-05-12T05:19:35.863Z,12.27
2023-05-12T05:22:10.417Z,12.33
2023-05-12T05:24:37.989Z,12.39
2023-05-12T05:27:07.261Z,12.43
2023-05-12T05:29:34.776Z,12.40
2023-05-12T05:32:02.324Z,12.33
2023-05-12T05:34:29.915Z,12.26
2023-05-12T05:36:57.455Z,12.24
2023-05-12T05:39:25.297Z,12.29
2023-05-12T05:41:52.945Z,12.33
2023-05-12T05:44:21.874Z,12.38
2023-05-12T05:46:49.464Z,12.44
2023-05-12T05:49:17.041Z,12.46
2023-05-12T05:51:44.585Z,12.49
2023-05-12T05:54:12.235Z,12.53
2023-05-12T05:56:39.840Z,12.57
2023-05-12T05:59:07.769Z,12.57
2023-05-12T06:01:36.834Z,12.58
2023-05-12T06:04:04.522Z,12.59
2023-05-12T06:06:32.628Z,12.64
2023-05-12T06:09:00.187Z,12.67
2023-05-12T06:11:27.776Z,12.69
2023-05-12T06:13:55.347Z,12.71
2023-05-12T06:16:22.970Z,12.72
2023-05-12T06:18:51.951Z,12.75
2023-05-12T06:21:19.563Z,12.80
2023-05-12T06:23:47.102Z,12.84
2023-05-12T06:26:14.798Z,12.87
2023-05-12T06:28:42.410Z,12.90
2023-05-12T06:31:10.145Z,12.90
2023-05-12T06:33:37.673Z,12.94
2023-05-12T06:36:07.727Z,12.98
2023-05-12T06:38:35.294Z,13.00
2023-05-12T06:41:02.908Z,13.03
2023-05-12T06:43:30.605Z,13.04
2023-05-12T06:45:58.215Z,13.04
2023-05-12T06:48:25.875Z,13.01
2023-05-12T06:50:53.456Z,12.94
2023-05-12T06:53:24.094Z,12.90
2023-05-12T06:55:53.628Z,12.88
2023-05-12T06:58:22.062Z,12.90
2023-05-12T07:00:49.739Z,12.95
2023-05-12T07:03:17.496Z,13.00
2023-05-12T07:05:45.574Z,13.05
2023-05-12T07:08:13.212Z,13.10
2023-05-12T07:10:42.292Z,13.13
2023-05-12T07:13:10.072Z,13.15
2023-05-12T07:15:37.647Z,13.17
2023-05-12T07:18:05.331Z,13.17
2023-05-12T07:20:33.001Z,13.20
2023-05-12T07:23:00.662Z,13.28
2023-05-12T07:25:28.543Z,13.37
2023-05-12T07:27:57.503Z,13.43
2023-05-12T07:30:25.230Z,13.43
2023-05-12T07:32:53.167Z,13.38
2023-05-12T07:35:21.024Z,13.32
2023-05-12T07:37:48.654Z,13.31
2023-05-12T07:40:16.466Z,13.33
2023-05-12T07:42:44.273Z,13.33
2023-05-12T07:45:13.496Z,13.33
2023-05-12T07:47:41.268Z,13.37
2023-05-12T07:50:09.201Z,13.39
2023-05-12T07:52:36.742Z,13.42
2023-05-12T07:55:04.680Z,13.50
2023-05-12T07:57:32.260Z,13.63
2023-05-12T07:59:59.872Z,13.70
2023-05-12T08:02:28.972Z,13.78
2023-05-12T08:04:56.605Z,13.88
2023-05-12T08:07:24.297Z,13.95
2023-05-12T08:09:52.599Z,13.95
2023-05-12T08:12:21.275Z,13.96
2023-05-12T08:14:48.945Z,14.05
2023-05-12T08:17:16.573Z,14.15
2023-05-12T08:19:45.551Z,14.23
2023-05-12T08:22:13.380Z,14.30
2023-05-12T08:24:41.014Z,14.30
2023-05-12T08:27:08.641Z,14.26
2023-05-12T08:29:36.225Z,14.24
2023-05-12T08:32:03.942Z,14.27
2023-05-12T08:34:31.646Z,14.33
2023-05-12T08:37:01.589Z,14.43
2023-05-12T08:39:30.981Z,14.43
2023-05-12T08:42:09.465Z,14.37
2023-05-12T08:44:38.159Z,14.32
2023-05-12T08:47:06.973Z,14.30
2023-05-12T08:49:38.742Z,14.29
2023-05-12T08:52:09.039Z,14.31
2023-05-12T08:54:48.493Z,14.32
2023-05-12T08:57:20.764Z,14.33
2023-05-12T08:59:48.751Z,14.30
2023-05-12T09:02:18.332Z,14.31
2023-05-12T09:04:45.981Z,14.39
2023-05-12T09:07:15.867Z,14.47
2023-05-12T09:09:45.939Z,14.47
2023-05-12T09:12:16.885Z,14.47
2023-05-12T09:14:45.822Z,14.46
2023-05-12T09:17:13.955Z,14.48
2023-05-12T09:19:41.490Z,14.56
2023-05-12T09:22:14.672Z,14.67
2023-05-12T09:24:44.186Z,14.65
2023-05-12T09:27:11.781Z,14.59
2023-05-12T09:29:58.966Z,14.53
2023-05-12T09:32:34.691Z,14.49
2023-05-12T09:35:07.799Z,14.48
2023-05-12T09:37:36.091Z,14.48
2023-05-12T09:40:07.340Z,14.49
2023-05-12T09:42:36.338Z,14.48
2023-05-12T09:45:04.313Z,14.49
2023-05-12T09:47:38.847Z,14.46
2023-05-12T09:50:08.634Z,14.44
2023-05-12T09:52:38.754Z,14.39
2023-05-12T09:55:10.945Z,14.34
2023-05-12T09:57:41.283Z,14.29
2023-05-12T10:00:21.143Z,14.27
2023-05-12T10:02:58.085Z,14.30
2023-05-12T10:05:26.256Z,14.33
2023-05-12T10:07:58.536Z,14.38
2023-05-12T10:10:28.745Z,14.40
2023-05-12T10:12:57.089Z,14.41
2023-05-12T10:15:25.816Z,14.41
2023-05-12T10:17:55.140Z,14.38
2023-05-12T10:20:23.639Z,14.38
2023-05-12T10:22:52.798Z,14.34
2023-05-12T10:25:21.326Z,14.33
2023-05-12T10:27:51.415Z,14.34
2023-05-12T10:30:19.211Z,14.31
2023-05-12T10:32:46.784Z,14.28
2023-05-12T10:35:15.395Z,14.27
2023-05-12T10:37:43.738Z,14.25
2023-05-12T10:40:12.069Z,14.24
2023-05-12T10:42:41.511Z,14.21
2023-05-12T10:45:20.885Z,14.22
2023-05-12T10:47:48.698Z,14.22
2023-05-12T10:50:27.872Z,14.25
2023-05-12T10:52:55.919Z,14.24
2023-05-12T10:55:32.919Z,14.25
2023-05-12T10:58:10.588Z,14.22
2023-05-12T11:00:48.721Z,14.19
2023-05-12T11:03:19.549Z,14.16
2023-05-12T11:05:48.963Z,14.13
2023-05-12T11:08:17.769Z,14.13
2023-05-12T11:10:46.979Z,14.11
2023-05-12T11:13:14.782Z,14.08
2023-05-12T11:15:46.150Z,14.08
2023-05-12T11:18:13.826Z,14.10
2023-05-12T11:20:41.777Z,14.11
2023-05-12T11:23:09.278Z,14.14
2023-05-12T11:25:36.969Z,14.13
2023-05-12T11:28:04.568Z,14.10
2023-05-12T11:30:32.412Z,14.07
2023-05-12T11:33:04.654Z,14.10
2023-05-12T11:35:32.679Z,14.14
2023-05-12T11:38:02.797Z,14.13
2023-05-12T11:40:30.546Z,14.08
2023-05-12T11:43:00.166Z,14.05
2023-05-12T11:45:29.904Z,14.06
2023-05-12T11:48:08.826Z,14.09
2023-05-12T11:50:39.696Z,14.16
2023-05-12T11:53:12.290Z,14.20
2023-05-12T11:55:48.120Z,14.27
2023-05-12T11:58:20.779Z,14.29
2023-05-12T12:00:48.937Z,14.32
2023-05-12T12:03:17.939Z,14.35
2023-05-12T12:05:57.811Z,14.37
2023-05-12T12:08:25.434Z,14.38
2023-05-12T12:10:53.004Z,14.41
2023-05-12T12:13:21.767Z,14.46
2023-05-12T12:15:49.784Z,14.49
2023-05-12T12:18:19.381Z,14.52
2023-05-12T12:20:48.317Z,14.53
2023-05-12T12:23:16.037Z,14.52
2023-05-12T12:25:43.904Z,14.51
2023-05-12T12:28:11.414Z,14.52
2023-05-12T12:30:39.012Z,14.53
2023-05-12T12:33:06.610Z,14.55
2023-05-12T12:35:35.519Z,14.59
2023-05-12T12:38:03.069Z,14.66
2023-05-12T12:40:31.811Z,14.66
2023-05-12T12:42:59.326Z,14.59
2023-05-12T12:45:27.357Z,14.56
2023-05-12T12:47:55.563Z,14.55
2023-05-12T12:50:25.021Z,14.53
2023-05-12T12:52:54.726Z,14.54
2023-05-12T12:55:22.895Z,14.51
2023-05-12T12:57:50.805Z,14.43
2023-05-12T13:00:19.405Z,14.36
2023-05-12T13:02:47.166Z,14.34
2023-05-12T13:05:15.113Z,14.31
2023-05-12T13:07:42.844Z,14.27
2023-05-12T13:10:13.224Z,14.21
2023-05-12T13:12:41.033Z,14.12
2023-05-12T13:15:10.421Z,14.06
2023-05-12T13:17:38.072Z,14.00
2023-05-12T13:20:06.438Z,13.93
2023-05-12T13:22:33.942Z,13.85
2023-05-12T13:25:01.524Z,13.77
2023-05-12T13:27:30.558Z,13.76
2023-05-12T13:29:58.153Z,13.74
2023-05-12T13:32:25.796Z,13.69
2023-05-12T13:34:53.554Z,13.67
2023-05-12T13:37:21.450Z,13.65
2023-05-12T13:39:49.073Z,13.67
2023-05-12T13:42:17.049Z,13.67
2023-05-12T13:44:46.021Z,13.66
2023-05-12T13:47:13.654Z,13.68
2023-05-12T13:49:41.728Z,13.73
2023-05-12T13:52:09.283Z,13.78
2023-05-12T13:54:36.914Z,13.83
2023-05-12T13:57:04.813Z,13.85
2023-05-12T13:59:32.481Z,13.86
2023-05-12T14:02:01.665Z,13.86
2023-05-12T14:04:29.316Z,13.83
2023-05-12T14:06:56.904Z,13.80
2023-05-12T14:09:24.792Z,13.77
2023-05-12T14:11:53.855Z,13.76
2023-05-12T14:14:21.430Z,13.77
2023-05-12T14:16:48.975Z,13.76
2023-05-12T14:19:17.953Z,13.69
2023-05-12T14:21:45.646Z,13.60
2023-05-12T14:24:13.183Z,13.56
2023-05-12T14:26:41.025Z,13.57
2023-05-12T14:29:08.963Z,13.60
2023-05-12T14:31:36.648Z,13.63
2023-05-12T14:34:04.590Z,13.63
2023-05-12T14:36:33.471Z,13.65
2023-05-12T14:39:00.982Z,13.70
2023-05-12T14:41:28.574Z,13.74
2023-05-12T14:43:56.197Z,13.76
2023-05-12T14:46:24.933Z,13.77
2023-05-12T14:48:52.705Z,13.80
2023-05-12T14:51:20.235Z,13.85
2023-05-12T14:53:49.164Z,13.84
2023-05-12T14:56:16.702Z,13.88
2023-05-12T14:58:44.208Z,13.89
2023-05-12T15:01:12.471Z,13.91
2023-05-12T15:03:40.061Z,13.94
2023-05-12T15:06:08.592Z,13.90
2023-05-12T15:08:36.327Z,13.84
2023-05-12T15:11:05.794Z,13.80
2023-05-12T15:13:33.334Z,13.76
2023-05-12T15:16:01.418Z,13.74
2023-05-12T15:18:29.014Z,13.71
2023-05-12T15:20:56.708Z,13.66
2023-05-12T15:23:24.253Z,13.57
2023-05-12T15:25:51.857Z,13.52
2023-05-12T15:28:20.917Z,13.50
2023-05-12T15:30:55.665Z,13.51
2023-05-12T15:33:23.211Z,13.55
2023-05-12T15:35:50.719Z,13.61
2023-05-12T15:38:18.593Z,13.66
2023-05-12T15:40:46.197Z,13.70
2023-05-12T15:43:13.714Z,13.74
2023-05-12T15:45:42.609Z,13.78
2023-05-12T15:48:10.684Z,13.82
2023-05-12T15:50:38.424Z,13.85
2023-05-12T15:53:06.871Z,13.87
2023-05-12T15:55:34.655Z,13.89
2023-05-12T15:58:03.510Z,13.89
2023-05-12T16:00:31.161Z,13.89
2023-05-12T16:03:01.829Z,13.89
2023-05-12T16:05:29.479Z,13.90
2023-05-12T16:07:56.985Z,13.88
2023-05-12T16:10:26.022Z,13.86
2023-05-12T16:12:53.550Z,13.84
2023-05-12T16:15:21.511Z,13.81
2023-05-12T16:17:49.329Z,13.81
2023-05-12T16:20:18.256Z,13.80
2023-05-12T16:22:45.815Z,13.80
2023-05-12T16:25:13.361Z,13.79
2023-05-12T16:27:41.095Z,13.73
2023-05-12T16:30:09.697Z,13.63
2023-05-12T16:32:37.413Z,13.54
2023-05-12T16:35:05.451Z,13.45
2023-05-12T16:37:34.340Z,13.38
2023-05-12T16:40:02.120Z,13.31
2023-05-12T16:42:29.730Z,13.24
2023-05-12T16:44:57.324Z,13.19
2023-05-12T16:47:25.973Z,13.14
2023-05-12T16:49:54.180Z,13.10
2023-05-12T16:52:21.872Z,13.10
2023-05-12T16:54:50.789Z,13.10
2023-05-12T16:57:18.693Z,13.10
2023-05-12T16:59:48.333Z,13.13
2023-05-12T17:02:16.169Z,13.16
2023-05-12T17:04:44.435Z,13.15
2023-05-12T17:07:12.030Z,13.14
2023-05-12T17:09:39.554Z,13.11
2023-05-12T17:12:09.189Z,13.05
2023-05-12T17:14:37.317Z,13.00
2023-05-12T17:17:04.992Z,12.94
2023-05-12T17:19:33.345Z,12.91
2023-05-12T17:22:01.470Z,12.89
2023-05-12T17:24:29.070Z,12.87
2023-05-12T17:26:57.630Z,12.84
2023-05-12T17:29:26.781Z,12.80
2023-05-12T17:31:54.482Z,12.80
2023-05-12T17:34:22.130Z,12.82
2023-05-12T17:36:49.693Z,12.81
2023-05-12T17:39:17.253Z,12.81
2023-05-12T17:41:44.992Z,12.84
2023-05-12T17:44:12.556Z,12.83
2023-05-12T17:46:41.533Z,12.83
2023-05-12T17:49:10.798Z,12.85
2023-05-12T17:51:39.136Z,12.86
2023-05-12T17:54:08.172Z,12.86
2023-05-12T17:56:35.714Z,12.87
2023-05-12T17:59:03.625Z,12.88
2023-05-12T18:01:31.339Z,12.90
2023-05-12T18:04:00.244Z,12.90
2023-05-12T18:06:27.792Z,12.92
2023-05-12T18:08:56.590Z,12.93
2023-05-12T18:11:24.152Z,12.90
2023-05-12T18:13:52.097Z,12.88
2023-05-12T18:16:28.638Z,12.86
2023-05-12T18:18:56.927Z,12.88
2023-05-12T18:21:26.030Z,12.89
2023-05-12T18:23:53.563Z,12.89
2023-05-12T18:26:21.152Z,12.89
2023-05-12T18:28:48.753Z,12.87
2023-05-12T18:31:19.426Z,12.85
2023-05-12T18:33:47.540Z,12.85
2023-05-12T18:36:15.261Z,12.86
2023-05-12T18:38:44.704Z,12.85
2023-05-12T18:41:13.026Z,12.87
2023-05-12T18:43:41.815Z,12.88
2023-05-12T18:46:09.495Z,12.88
2023-05-12T18:48:37.081Z,12.90
2023-05-12T18:51:04.888Z,12.92
2023-05-12T18:53:32.446Z,12.92
2023-05-12T18:56:01.400Z,12.90
2023-05-12T18:58:28.999Z,12.86
2023-05-12T19:00:56.638Z,12.84
2023-05-12T19:03:24.189Z,12.82
2023-05-12T19:05:51.731Z,12.81
2023-05-12T19:08:19.937Z,12.78
2023-05-12T19:10:48.968Z,12.75
2023-05-12T19:13:17.971Z,12.76
2023-05-12T19:15:45.582Z,12.77
2023-05-12T19:18:13.261Z,12.73
2023-05-12T19:20:40.958Z,12.69
2023-05-12T19:23:08.688Z,12.66
2023-05-12T19:25:36.244Z,12.62
2023-05-12T19:28:04.631Z,12.60
2023-05-12T19:30:35.334Z,12.59
2023-05-12T19:33:02.978Z,12.55
2023-05-12T19:35:30.564Z,12.52
2023-05-12T19:37:58.125Z,12.50
2023-05-12T19:40:25.671Z,12.48
2023-05-12T19:42:53.522Z,12.48
2023-05-12T19:45:21.431Z,12.42
2023-05-12T19:47:54.270Z,12.33
2023-05-12T19:50:21.808Z,12.30
2023-05-12T19:52:49.719Z,12.30
2023-05-12T19:55:17.555Z,12.29
2023-05-12T19:57:45.106Z,12.28
2023-05-12T20:00:13.846Z,12.24
2023-05-12T20:02:41.663Z,12.15
2023-05-12T20:05:10.890Z,12.13
2023-05-12T20:07:38.984Z,12.10
2023-05-12T20:10:07.277Z,12.10
2023-05-12T20:12:34.835Z,12.11
2023-05-12T20:15:02.437Z,12.09
2023-05-12T20:17:29.986Z,12.05
2023-05-12T20:19:57.615Z,12.03
2023-05-12T20:22:26.717Z,12.02
2023-05-12T20:24:54.234Z,12.00
2023-05-12T20:27:21.812Z,12.01
2023-05-12T20:29:49.445Z,12.01
2023-05-12T20:32:16.962Z,12.00
2023-05-12T20:34:44.649Z,11.99
2023-05-12T20:37:12.204Z,11.97
2023-05-12T20:39:42.391Z,11.94
2023-05-12T20:42:10.458Z,11.89
2023-05-12T20:44:38.050Z,11.89
2023-05-12T20:47:06.449Z,11.85
2023-05-12T20:49:34.001Z,11.84
2023-05-12T20:52:01.570Z,11.81
2023-05-12T20:54:29.177Z,11.78
2023-05-12T20:56:58.255Z,11.77
2023-05-12T20:59:25.869Z,11.77
2023-05-12T21:01:53.401Z,11.77
2023-05-12T21:04:21.056Z,11.80
2023-05-12T21:06:48.626Z,11.81
2023-05-12T21:09:16.223Z,11.83
2023-05-12T21:11:43.748Z,11.86
2023-05-12T21:14:12.637Z,11.90
2023-05-12T21:16:40.336Z,11.91
2023-05-12T21:19:08.133Z,11.92
2023-05-12T21:21:36.023Z,11.95
2023-05-12T21:24:03.714Z,11.97
2023-05-12T21:26:31.226Z,11.95
2023-05-12T21:29:02.709Z,11.97
2023-05-12T21:31:31.796Z,11.98
2023-05-12T21:33:59.406Z,12.00
2023-05-12T21:36:27.067Z,12.02
2023-05-12T21:38:54.627Z,12.04
2023-05-12T21:41:22.398Z,12.06
2023-05-12T21:43:49.949Z,12.09
2023-05-12T21:46:17.481Z,12.09
2023-05-12T21:48:46.407Z,12.09
2023-05-12T21:51:14.101Z,12.11
2023-05-12T21:53:41.777Z,12.12
2023-05-12T21:56:09.361Z,12.13
2023-05-12T21:58:36.978Z,12.12
2023-05-12T22:01:04.623Z,12.15
2023-05-12T22:03:32.939Z,12.19
2023-05-12T22:06:02.038Z,12.18
2023-05-12T22:08:29.842Z,12.15
2023-05-12T22:10:57.453Z,12.14
2023-05-12T22:13:24.991Z,12.15
2023-05-12T22:15:53.438Z,12.18
2023-05-12T22:18:21.096Z,12.19
2023-05-12T22:20:48.627Z,12.20
2023-05-12T22:23:17.554Z,12.21
2023-05-12T22:25:45.056Z,12.21
2023-05-12T22:28:12.600Z,12.19
2023-05-12T22:30:41.571Z,12.16
2023-05-12T22:33:09.239Z,12.15
2023-05-12T22:35:36.823Z,12.16
2023-05-12T22:38:04.390Z,12.14
2023-05-12T22:40:33.680Z,12.12
2023-05-12T22:43:01.271Z,12.14
2023-05-12T22:45:29.310Z,12.12
2023-05-12T22:47:56.994Z,12.09
2023-05-12T22:50:24.850Z,12.07
2023-05-12T22:52:56.985Z,12.04
2023-05-12T22:55:26.227Z,12.02
2023-05-12T22:57:55.070Z,11.99
2023-05-12T23:00:22.787Z,11.92
2023-05-12T23:02:50.642Z,11.88
2023-05-12T23:05:18.339Z,11.85
2023-05-12T23:07:45.972Z,11.85
2023-05-12T23:10:13.496Z,11.82
2023-05-12T23:12:41.236Z,11.78
2023-05-12T23:15:10.966Z,11.75
2023-05-12T23:17:38.508Z,11.72
2023-05-12T23:20:07.723Z,11.67
2023-05-12T23:22:35.337Z,11.63
2023-05-12T23:25:02.851Z,11.60
2023-05-12T23:27:30.402Z,11.63
2023-05-12T23:29:57.966Z,11.66
2023-05-12T23:32:27.009Z,11.68
2023-05-12T23:34:54.640Z,11.66
2023-05-12T23:37:24.321Z,11.63
2023-05-12T23:39:51.890Z,11.65
2023-05-12T23:42:19.396Z,11.63
2023-05-12T23:44:47.021Z,11.59
2023-05-12T23:47:14.547Z,11.53
2023-05-12T23:49:43.439Z,11.47
2023-05-12T23:52:10.977Z,11.44
2023-05-12T23:54:38.516Z,11.43
2023-05-12T23:57:06.392Z,11.40
2023-05-12T23:59:33.919Z,11.39
